createdAt,value
2019-02-25T00:01:46.152Z,26.40
2019-02-25T00:04:51.008Z,26.00
2019-02-25T00:07:55.815Z,25.60
2019-02-25T00:11:00.671Z,26.30
2019-02-25T00:14:05.500Z,26.20
2019-02-25T00:17:10.370Z,26.70
2019-02-25T00:20:15.223Z,26.80
2019-02-25T00:23:20.059Z,27.00
2019-02-25T00:26:24.884Z,27.40
2019-02-25T00:29:29.730Z,27.40
2019-02-25T00:32:34.583Z,27.00
2019-02-25T00:35:39.439Z,27.10
2019-02-25T00:38:44.362Z,27.00
2019-02-25T00:41:49.253Z,27.10
2019-02-25T00:44:54.074Z,27.30
2019-02-25T00:47:58.896Z,27.50
2019-02-25T00:51:03.755Z,27.50
2019-02-25T00:54:08.596Z,27.90
2019-02-25T00:57:13.498Z,27.80
2019-02-25T01:00:20.010Z,27.90
2019-02-25T01:03:24.898Z,28.30
2019-02-25T01:06:29.823Z,28.60
2019-02-25T01:09:35.599Z,28.90
2019-02-25T01:12:42.259Z,29.10
2019-02-25T01:15:47.119Z,29.10
2019-02-25T01:18:51.983Z,29.30
2019-02-25T01:21:57.880Z,28.90
2019-02-25T01:25:02.886Z,28.90
2019-02-25T01:28:07.738Z,29.20
2019-02-25T01:31:12.576Z,29.40
2019-02-25T01:34:17.389Z,29.60
2019-02-25T01:37:22.328Z,29.40
2019-02-25T01:40:27.223Z,29.80
2019-02-25T01:43:32.050Z,29.90
2019-02-25T01:46:36.938Z,29.80
2019-02-25T01:49:41.794Z,29.80
2019-02-25T01:52:46.606Z,29.60
2019-02-25T01:55:51.463Z,29.60
2019-02-25T01:58:56.371Z,30.00
2019-02-25T02:02:01.250Z,30.60
2019-02-25T02:05:06.422Z,30.40
2019-02-25T02:08:12.004Z,30.30
2019-02-25T02:11:16.868Z,30.70
2019-02-25T02:14:21.718Z,30.80
2019-02-25T02:17:26.546Z,31.00
2019-02-25T02:20:31.401Z,31.10
2019-02-25T02:23:36.242Z,31.10
2019-02-25T02:26:41.094Z,31.60
2019-02-25T02:29:46.002Z,30.90
2019-02-25T02:32:50.825Z,31.10
2019-02-25T02:35:56.058Z,31.30
2019-02-25T02:39:00.976Z,31.00
2019-02-25T02:42:17.916Z,31.40
2019-02-25T02:45:34.905Z,31.30
2019-02-25T02:48:42.839Z,31.10
2019-02-25T02:51:47.735Z,30.90
2019-02-25T02:54:53.641Z,30.60
2019-02-25T02:57:58.485Z,31.00
2019-02-25T03:01:03.359Z,31.00
2019-02-25T03:04:08.239Z,30.60
2019-02-25T03:07:13.156Z,31.10
2019-02-25T03:10:19.256Z,30.60
2019-02-25T03:13:24.158Z,30.90
2019-02-25T03:16:29.139Z,30.60
2019-02-25T03:19:33.962Z,30.90
2019-02-25T03:22:38.791Z,31.00
2019-02-25T03:25:43.609Z,31.20
2019-02-25T03:28:48.483Z,31.50
2019-02-25T03:31:53.367Z,31.70
2019-02-25T03:34:58.210Z,32.20
2019-02-25T03:38:03.063Z,32.20
2019-02-25T03:41:07.895Z,32.10
2019-02-25T03:44:12.750Z,32.10
2019-02-25T03:47:17.609Z,33.80
2019-02-25T03:50:22.534Z,33.10
2019-02-25T03:53:27.434Z,33.50
2019-02-25T03:56:33.290Z,33.70
2019-02-25T03:59:38.119Z,33.80
2019-02-25T04:02:43.278Z,34.10
2019-02-25T04:05:48.302Z,34.60
2019-02-25T04:08:53.129Z,34.00
2019-02-25T04:11:57.979Z,34.80
2019-02-25T04:15:03.312Z,34.40
2019-02-25T04:18:08.156Z,34.50
2019-02-25T04:21:12.970Z,34.80
2019-02-25T04:24:17.795Z,34.10
2019-02-25T04:27:22.618Z,34.10
2019-02-25T04:30:27.488Z,33.80
2019-02-25T04:33:32.374Z,33.00
2019-02-25T04:36:37.237Z,33.80
2019-02-25T04:39:42.098Z,34.70
2019-02-25T04:42:46.910Z,34.30
2019-02-25T04:45:51.740Z,34.50
2019-02-25T04:48:56.554Z,34.90
2019-02-25T04:52:02.336Z,33.90
2019-02-25T04:55:09.185Z,33.80
2019-02-25T04:58:14.983Z,33.60
2019-02-25T05:01:19.912Z,33.60
2019-02-25T05:04:24.722Z,33.40
2019-02-25T05:07:30.555Z,34.10
2019-02-25T05:10:35.484Z,33.50
2019-02-25T05:13:40.887Z,33.30
2019-02-25T05:16:46.715Z,33.70
2019-02-25T05:19:51.579Z,34.20
2019-02-25T05:22:56.438Z,34.40
2019-02-25T05:26:01.280Z,34.90
2019-02-25T05:29:06.109Z,34.10
2019-02-25T05:32:11.059Z,34.50
2019-02-25T05:35:16.031Z,34.70
2019-02-25T05:38:20.998Z,34.40
2019-02-25T05:41:25.811Z,34.80
2019-02-25T05:44:30.643Z,34.60
2019-02-25T05:47:35.495Z,34.90
2019-02-25T05:50:41.163Z,34.90
2019-02-25T05:53:46.019Z,34.80
2019-02-25T05:56:50.861Z,34.40
2019-02-25T05:59:55.694Z,34.00
2019-02-25T06:03:00.506Z,34.20
2019-02-25T06:06:05.333Z,33.90
2019-02-25T06:09:10.175Z,33.70
2019-02-25T06:12:14.997Z,33.80
2019-02-25T06:15:20.622Z,33.50
2019-02-25T06:18:25.490Z,33.30
2019-02-25T06:21:30.368Z,33.50
2019-02-25T06:24:35.239Z,33.40
2019-02-25T06:27:40.057Z,33.10
2019-02-25T06:30:44.890Z,33.20
2019-02-25T06:33:49.699Z,33.50
2019-02-25T06:36:54.567Z,33.00
2019-02-25T06:39:59.374Z,33.20
2019-02-25T06:43:04.446Z,33.40
2019-02-25T06:46:09.273Z,32.90
2019-02-25T06:49:14.086Z,32.80
2019-02-25T06:52:20.080Z,33.10
2019-02-25T06:55:26.187Z,32.90
2019-02-25T06:58:31.013Z,32.90
2019-02-25T07:01:35.877Z,32.50
2019-02-25T07:04:49.130Z,32.40
2019-02-25T07:08:13.619Z,32.00
2019-02-25T07:11:20.110Z,32.10
2019-02-25T07:14:35.467Z,31.20
2019-02-25T07:17:56.954Z,30.60
2019-02-25T07:21:03.416Z,30.30
2019-02-25T07:24:18.882Z,30.70
2019-02-25T07:27:41.951Z,30.60
2019-02-25T07:30:54.398Z,30.40
2019-02-25T07:34:00.892Z,30.50
2019-02-25T07:37:07.390Z,30.80
2019-02-25T07:40:16.282Z,29.90
2019-02-25T07:43:25.431Z,30.00
2019-02-25T07:46:31.895Z,30.20
2019-02-25T07:49:38.401Z,29.80
2019-02-25T07:52:57.104Z,29.40
2019-02-25T07:56:06.518Z,29.60
2019-02-25T07:59:25.066Z,29.60
2019-02-25T08:02:31.559Z,29.40
2019-02-25T08:05:38.018Z,29.40
2019-02-25T08:08:44.512Z,29.30
2019-02-25T08:11:50.994Z,29.20
2019-02-25T08:14:57.534Z,28.90
2019-02-25T08:18:16.080Z,29.30
2019-02-25T08:21:25.457Z,29.40
2019-02-25T08:24:38.058Z,29.00
2019-02-25T08:28:02.962Z,28.30
2019-02-25T08:31:09.450Z,28.80
2019-02-25T08:34:18.711Z,28.40
2019-02-25T08:37:45.348Z,28.40
2019-02-25T08:41:02.062Z,28.40
2019-02-25T08:44:17.711Z,28.00
2019-02-25T08:47:24.162Z,28.10
2019-02-25T08:50:29.021Z,28.10
2019-02-25T08:53:33.882Z,28.00
2019-02-25T08:56:38.803Z,28.10
2019-02-25T08:59:43.650Z,27.00
2019-02-25T09:02:48.550Z,27.00
2019-02-25T09:05:53.369Z,26.70
2019-02-25T09:08:58.473Z,26.50
2019-02-25T09:12:03.303Z,26.70
2019-02-25T09:15:11.476Z,26.70
2019-02-25T09:18:16.315Z,26.10
2019-02-25T09:21:21.148Z,25.60
2019-02-25T09:24:25.990Z,26.30
2019-02-25T09:27:30.819Z,26.20
2019-02-25T09:30:35.666Z,26.00
2019-02-25T09:33:40.510Z,25.50
2019-02-25T09:36:45.362Z,25.80
2019-02-25T09:39:52.016Z,26.50
2019-02-25T09:42:56.945Z,25.80
2019-02-25T09:46:01.792Z,25.80
2019-02-25T09:49:06.640Z,25.90
2019-02-25T09:52:11.498Z,26.00
2019-02-25T09:55:16.313Z,25.40
2019-02-25T09:58:21.266Z,25.50
2019-02-25T10:01:26.110Z,25.60
2019-02-25T10:04:30.980Z,25.50
2019-02-25T10:07:35.919Z,25.40
2019-02-25T10:10:40.738Z,25.60
2019-02-25T10:13:45.584Z,25.80
2019-02-25T10:16:50.409Z,25.90
2019-02-25T10:19:55.270Z,26.10
2019-02-25T10:23:00.133Z,25.90
2019-02-25T10:26:05.457Z,26.20
2019-02-25T10:29:10.399Z,26.50
2019-02-25T10:32:15.217Z,26.50
2019-02-25T10:35:27.638Z,27.30
2019-02-25T10:38:32.491Z,26.60
2019-02-25T10:41:37.320Z,26.70
2019-02-25T10:44:42.249Z,26.50
2019-02-25T10:47:49.458Z,26.00
2019-02-25T10:50:56.220Z,26.80
2019-02-25T10:54:00.647Z,27.00
2019-02-25T10:57:05.935Z,26.70
2019-02-25T11:00:16.427Z,27.40
2019-02-25T11:03:21.726Z,26.90
2019-02-25T11:06:27.383Z,26.30
2019-02-25T11:09:34.906Z,26.10
2019-02-25T11:12:40.509Z,26.50
2019-02-25T11:15:46.669Z,26.50
2019-02-25T11:18:52.760Z,26.90
2019-02-25T11:21:58.615Z,26.50
2019-02-25T11:25:04.670Z,26.60
2019-02-25T11:28:22.657Z,26.50
2019-02-25T11:31:21.707Z,26.50
2019-02-25T11:34:24.514Z,25.90
2019-02-25T11:37:29.337Z,26.40
2019-02-25T11:40:36.067Z,26.20
2019-02-25T11:43:40.755Z,26.00
2019-02-25T11:46:45.629Z,26.90
2019-02-25T11:49:50.934Z,26.70
2019-02-25T11:52:56.101Z,26.40
2019-02-25T11:56:00.925Z,26.60
2019-02-25T11:59:05.758Z,27.10
2019-02-25T12:02:10.683Z,26.70
2019-02-25T12:05:17.128Z,26.50
2019-02-25T12:08:21.995Z,27.00
2019-02-25T12:11:27.630Z,26.70
2019-02-25T12:14:32.469Z,26.20
2019-02-25T12:17:37.320Z,25.90
2019-02-25T12:20:42.150Z,26.30
2019-02-25T12:23:47.006Z,26.30
2019-02-25T12:26:51.867Z,26.50
2019-02-25T12:29:56.731Z,26.00
2019-02-25T12:33:01.626Z,25.80
2019-02-25T12:36:06.489Z,26.20
2019-02-25T12:39:11.577Z,26.20
2019-02-25T12:42:16.434Z,25.80
2019-02-25T12:45:21.373Z,25.60
2019-02-25T12:48:26.242Z,26.30
2019-02-25T12:51:31.132Z,26.40
2019-02-25T12:54:35.961Z,26.50
2019-02-25T12:57:40.828Z,27.10
2019-02-25T13:00:46.183Z,26.70
2019-02-25T13:03:51.099Z,26.90
2019-02-25T13:06:55.962Z,27.00
2019-02-25T13:10:00.850Z,27.60
2019-02-25T13:13:07.374Z,27.00
2019-02-25T13:16:12.283Z,26.70
2019-02-25T13:19:17.126Z,27.00
2019-02-25T13:22:21.974Z,26.90
2019-02-25T13:25:29.806Z,27.10
2019-02-25T13:28:34.641Z,27.00
2019-02-25T13:31:39.557Z,27.60
2019-02-25T13:34:44.494Z,28.20
2019-02-25T13:37:49.393Z,27.10
2019-02-25T13:40:54.290Z,27.00
2019-02-25T13:43:59.193Z,27.20
2019-02-25T13:47:04.150Z,27.30
2019-02-25T13:50:17.097Z,27.30
2019-02-25T13:53:22.030Z,27.50
2019-02-25T13:56:27.169Z,27.50
2019-02-25T13:59:32.121Z,27.90
2019-02-25T14:02:37.018Z,28.20
2019-02-25T14:05:41.937Z,28.20
2019-02-25T14:08:46.887Z,28.30
2019-02-25T14:11:51.780Z,28.30
2019-02-25T14:14:56.613Z,28.40
2019-02-25T14:18:01.702Z,28.30
2019-02-25T14:21:06.642Z,28.30
2019-02-25T14:24:11.579Z,28.40
2019-02-25T14:27:16.499Z,28.70
2019-02-25T14:30:23.374Z,28.80
2019-02-25T14:33:28.317Z,28.40
2019-02-25T14:36:33.501Z,28.70
2019-02-25T14:39:40.652Z,28.70
2019-02-25T14:42:48.667Z,28.70
2019-02-25T14:45:55.731Z,28.60
2019-02-25T14:48:58.644Z,28.50
2019-02-25T14:52:03.487Z,28.60
2019-02-25T14:55:09.388Z,28.30
2019-02-25T14:58:17.230Z,28.00
2019-02-25T15:01:23.281Z,28.50
2019-02-25T15:04:30.453Z,28.00
2019-02-25T15:07:35.369Z,28.40
2019-02-25T15:10:41.235Z,28.40
2019-02-25T15:13:46.861Z,28.40
2019-02-25T15:16:51.975Z,28.80
2019-02-25T15:19:56.886Z,27.90
2019-02-25T15:23:01.802Z,28.20
2019-02-25T15:26:06.708Z,28.20
2019-02-25T15:29:12.239Z,28.00
2019-02-25T15:32:17.131Z,27.40
2019-02-25T15:35:22.193Z,27.60
2019-02-25T15:38:28.839Z,27.80
2019-02-25T15:41:33.624Z,27.60
2019-02-25T15:44:40.359Z,27.40
2019-02-25T15:47:46.900Z,27.40
2019-02-25T15:50:57.708Z,27.10
2019-02-25T15:54:01.956Z,26.80
2019-02-25T15:57:06.783Z,26.80
2019-02-25T16:00:19.108Z,27.10
2019-02-25T16:03:23.990Z,27.10
2019-02-25T16:09:40.618Z,27.50
2019-02-25T16:12:45.739Z,27.40
2019-02-25T16:15:50.977Z,27.40
2019-02-25T16:18:55.937Z,27.40
2019-02-25T16:22:02.616Z,28.00
2019-02-25T16:25:18.646Z,27.70
2019-02-25T16:28:23.588Z,27.80
2019-02-25T16:31:29.176Z,27.60
2019-02-25T16:34:36.132Z,28.00
2019-02-25T16:37:42.744Z,28.20
2019-02-25T16:40:50.233Z,28.20
2019-02-25T16:43:55.837Z,28.40
2019-02-25T16:47:01.745Z,28.60
2019-02-25T16:50:14.104Z,29.00
2019-02-25T16:53:20.214Z,28.90
2019-02-25T16:56:25.341Z,28.80
2019-02-25T16:59:30.230Z,28.80
2019-02-25T17:02:36.209Z,28.80
2019-02-25T17:05:42.822Z,28.50
2019-02-25T17:08:48.875Z,28.90
2019-02-25T17:11:54.921Z,29.10
2019-02-25T17:14:59.741Z,28.90
2019-02-25T17:18:04.754Z,28.70
2019-02-25T17:21:09.645Z,28.50
2019-02-25T17:24:14.515Z,28.30
2019-02-25T17:27:19.693Z,28.60
2019-02-25T17:30:27.050Z,28.40
2019-02-25T17:33:32.627Z,28.30
2019-02-25T17:36:38.166Z,28.40
2019-02-25T17:39:43.074Z,28.50
2019-02-25T17:42:49.433Z,28.70
2019-02-25T17:45:56.374Z,28.70
2019-02-25T17:49:01.809Z,28.50
2019-02-25T17:52:06.795Z,28.70
2019-02-25T17:55:14.066Z,28.50
2019-02-25T17:58:19.793Z,28.80
2019-02-25T18:01:27.989Z,28.50
2019-02-25T18:04:34.674Z,28.60
2019-02-25T18:07:40.013Z,28.60
2019-02-25T18:10:47.500Z,28.40
2019-02-25T18:13:53.513Z,28.30
2019-02-25T18:16:59.343Z,28.10
2019-02-25T18:20:08.606Z,27.80
2019-02-25T18:23:14.033Z,27.40
2019-02-25T18:26:18.923Z,27.60
2019-02-25T18:29:24.842Z,27.80
2019-02-25T18:32:32.800Z,27.70
2019-02-25T18:35:39.453Z,28.00
2019-02-25T18:38:46.218Z,28.60
2019-02-25T18:41:52.766Z,28.00
2019-02-25T18:44:57.373Z,28.10
2019-02-25T18:48:03.321Z,28.00
2019-02-25T18:51:08.229Z,28.10
2019-02-25T18:54:14.575Z,28.10
2019-02-25T18:57:21.034Z,28.20
2019-02-25T19:00:31.025Z,28.70
2019-02-25T19:03:35.934Z,28.30
2019-02-25T19:06:41.877Z,28.20
2019-02-25T19:09:49.370Z,28.70
2019-02-25T19:12:56.373Z,28.30
2019-02-25T19:16:01.656Z,28.50
2019-02-25T19:19:07.959Z,28.70
2019-02-25T19:22:13.640Z,28.40
2019-02-25T19:25:20.879Z,28.40
2019-02-25T19:28:27.769Z,28.30
2019-02-25T19:31:32.757Z,28.40
2019-02-25T19:34:39.750Z,28.60
2019-02-25T19:37:46.653Z,28.80
2019-02-25T19:40:53.123Z,28.60
2019-02-25T19:43:59.385Z,28.60
2019-02-25T19:47:04.484Z,29.00
2019-02-25T19:50:11.910Z,28.90
2019-02-25T19:53:19.419Z,29.60
2019-02-25T19:56:23.397Z,29.80
2019-02-25T19:59:30.476Z,29.70
2019-02-25T20:02:36.528Z,29.30
2019-02-25T20:05:44.201Z,29.40
2019-02-25T20:08:50.902Z,29.30
2019-02-25T20:11:57.278Z,29.00
2019-02-25T20:15:02.046Z,29.20
2019-02-25T20:18:09.342Z,29.10
2019-02-25T20:21:14.249Z,29.60
2019-02-25T20:24:21.169Z,29.30
2019-02-25T20:27:25.746Z,29.30
2019-02-25T20:30:30.923Z,29.10
2019-02-25T20:33:37.517Z,29.10
2019-02-25T20:36:42.818Z,29.50
2019-02-25T20:39:47.733Z,29.40
2019-02-25T20:42:53.578Z,29.60
2019-02-25T20:46:01.509Z,29.80
2019-02-25T20:49:05.953Z,29.60
2019-02-25T20:52:11.769Z,29.90
2019-02-25T20:55:17.489Z,29.90
2019-02-25T20:58:23.244Z,29.50
2019-02-25T21:01:28.147Z,30.00
2019-02-25T21:04:40.917Z,29.70
2019-02-25T21:07:45.903Z,30.10
2019-02-25T21:10:50.877Z,29.80
2019-02-25T21:13:55.821Z,29.70
2019-02-25T21:17:03.012Z,30.00
2019-02-25T21:20:10.625Z,29.90
2019-02-25T21:23:15.489Z,30.30
2019-02-25T21:26:20.321Z,29.80
2019-02-25T21:29:27.108Z,30.10
2019-02-25T21:32:32.895Z,30.10
2019-02-25T21:35:39.611Z,29.80
2019-02-25T21:38:45.380Z,30.00
2019-02-25T21:41:51.084Z,29.90
2019-02-25T21:44:57.028Z,29.90
2019-02-25T21:48:04.963Z,29.80
2019-02-25T21:51:11.886Z,29.20
2019-02-25T21:54:16.698Z,29.60
2019-02-25T21:57:21.585Z,29.50
2019-02-25T22:00:27.522Z,29.20
2019-02-25T22:03:37.057Z,29.30
2019-02-25T22:06:39.814Z,29.20
2019-02-25T22:09:45.919Z,29.10
2019-02-25T22:12:51.032Z,29.20
2019-02-25T22:15:57.408Z,29.30
2019-02-25T22:19:02.533Z,29.30
2019-02-25T22:22:07.405Z,29.30
2019-02-25T22:25:23.006Z,29.30
2019-02-25T22:28:28.814Z,30.00
2019-02-25T22:31:35.431Z,29.60
2019-02-25T22:34:40.994Z,29.70
2019-02-25T22:37:49.277Z,29.60
2019-02-25T22:40:53.601Z,29.60
2019-02-25T22:43:59.871Z,29.90
2019-02-25T22:47:09.233Z,30.00
2019-02-25T22:50:15.129Z,30.00
2019-02-25T22:53:19.810Z,30.00
2019-02-25T22:56:27.928Z,30.00
2019-02-25T22:59:35.028Z,30.00
2019-02-25T23:02:40.991Z,30.10
2019-02-25T23:05:46.006Z,30.40
2019-02-25T23:08:51.577Z,30.60
2019-02-25T23:11:57.532Z,30.60
2019-02-25T23:15:03.856Z,30.80
2019-02-25T23:18:11.992Z,31.00
2019-02-25T23:21:23.411Z,31.00
2019-02-25T23:24:26.009Z,31.20
2019-02-25T23:27:32.144Z,31.10
2019-02-25T23:30:39.119Z,31.60
2019-02-25T23:33:44.375Z,31.60
2019-02-25T23:36:51.638Z,31.40
2019-02-25T23:40:00.099Z,31.60
2019-02-25T23:43:05.291Z,31.40
2019-02-25T23:46:09.863Z,31.60
2019-02-25T23:49:14.770Z,31.70
2019-02-25T23:52:19.601Z,31.70
2019-02-25T23:55:27.043Z,31.90
2019-02-25T23:58:31.070Z,31.70
